Time;durP1;ratioP1;P1;durP2;ratioP2;P2;SDS_P1;SDS_P2;PMS_P1;PMS_P2;Temp;Humidity;BMP_temperature;BMP_pressure;BME280_temperature;BME280_humidity;BME280_pressure;Samples;Min_cycle;Max_cycle;Signal;HPM_P1;HPM_P2
2021/05/26 00:02:25;;;;;;;8.40;4.70;;;9.20;99.90;;;;;;5052016;28;20665;-74
2021/05/26 00:04:51;;;;;;;9.02;5.80;;;9.20;99.90;;;;;;5055008;28;20119;-74
2021/05/26 00:07:17;;;;;;;6.10;5.20;;;9.20;99.90;;;;;;5054884;28;20041;-74
2021/05/26 00:09:42;;;;;;;9.52;4.93;;;9.30;99.90;;;;;;5059168;28;20544;-73
2021/05/26 00:12:08;;;;;;;8.60;5.00;;;9.30;99.90;;;;;;5055437;28;20131;-73
2021/05/26 00:14:34;;;;;;;11.77;5.05;;;9.20;99.90;;;;;;5054063;28;20119;-74
2021/05/26 00:17:00;;;;;;;12.98;5.72;;;9.20;99.90;;;;;;5055737;28;20045;-74
2021/05/26 00:19:25;;;;;;;12.50;5.70;;;9.20;99.90;;;;;;5052903;28;20042;-74
2021/05/26 00:21:51;;;;;;;9.75;5.55;;;9.20;99.90;;;;;;5052964;28;20037;-74
2021/05/26 00:24:16;;;;;;;10.85;4.97;;;9.20;99.90;;;;;;5051951;28;20482;-74
2021/05/26 00:26:44;;;;;;;7.07;4.60;;;9.20;99.90;;;;;;5055036;28;20041;-74
2021/05/26 00:29:09;;;;;;;11.75;5.63;;;9.20;99.90;;;;;;5055261;28;20040;-74
2021/05/26 00:31:35;;;;;;;10.75;5.80;;;9.10;99.90;;;;;;5052918;28;20046;-74
2021/05/26 00:34:02;;;;;;;14.05;5.50;;;9.20;99.90;;;;;;5053938;28;20056;-74
2021/05/26 00:36:28;;;;;;;8.55;5.30;;;9.20;99.90;;;;;;5059362;28;20041;-74
2021/05/26 00:38:54;;;;;;;14.35;5.47;;;9.10;99.90;;;;;;5061844;28;20807;-74
2021/05/26 00:41:19;;;;;;;9.48;5.20;;;9.10;99.90;;;;;;5058747;28;20041;-74
2021/05/26 00:43:45;;;;;;;9.65;6.50;;;9.10;99.90;;;;;;5056572;28;20041;-74
2021/05/26 00:46:11;;;;;;;9.43;5.60;;;9.10;99.90;;;;;;5059207;28;20067;-74
2021/05/26 00:48:36;;;;;;;5.80;4.40;;;9.10;99.90;;;;;;5060242;28;20037;-74
2021/05/26 00:51:02;;;;;;;11.18;6.22;;;9.10;99.90;;;;;;5057477;28;20065;-74
2021/05/26 00:53:30;;;;;;;9.02;5.18;;;9.10;99.90;;;;;;5057482;28;20468;-74
2021/05/26 00:55:57;;;;;;;10.52;6.10;;;9.10;99.90;;;;;;5058327;28;20255;-74
2021/05/26 00:58:24;;;;;;;7.80;5.22;;;9.20;99.90;;;;;;5057363;28;20090;-74
2021/05/26 01:00:49;;;;;;;10.10;6.78;;;9.20;99.90;;;;;;5057904;28;20041;-74
2021/05/26 01:03:15;;;;;;;9.25;5.18;;;9.30;99.90;;;;;;5057808;28;20052;-74
2021/05/26 01:05:41;;;;;;;7.78;5.97;;;9.30;99.90;;;;;;5088629;28;20150;-74
2021/05/26 01:08:07;;;;;;;7.82;6.22;;;9.30;99.90;;;;;;5056860;28;20383;-74
2021/05/26 01:10:34;;;;;;;11.10;7.22;;;9.40;99.90;;;;;;5056231;28;20048;-74
2021/05/26 01:13:00;;;;;;;10.10;5.50;;;9.40;99.90;;;;;;5055864;28;20043;-74
2021/05/26 01:15:25;;;;;;;7.53;6.38;;;9.30;99.90;;;;;;5056218;28;20036;-74
2021/05/26 01:17:52;;;;;;;8.80;5.57;;;9.40;99.90;;;;;;5059620;28;20043;-74
2021/05/26 01:20:21;;;;;;;9.23;6.05;;;9.40;99.90;;;;;;5057359;28;20037;-74
2021/05/26 01:22:47;;;;;;;10.13;7.10;;;9.50;99.90;;;;;;5058090;28;20626;-74
2021/05/26 01:25:13;;;;;;;8.90;6.10;;;9.40;99.90;;;;;;5051792;28;20044;-74
2021/05/26 01:27:39;;;;;;;9.07;6.85;;;9.50;99.90;;;;;;5056562;28;20102;-74
2021/05/26 01:30:07;;;;;;;7.22;6.53;;;9.40;99.90;;;;;;5057515;28;20045;-74
2021/05/26 01:32:44;;;;;;;10.80;6.72;;;9.50;99.90;;;;;;5055736;28;20029;-74
2021/05/26 01:35:14;;;;;;;11.32;7.10;;;9.50;99.90;;;;;;5056203;28;20041;-74
2021/05/26 01:37:41;;;;;;;9.50;6.93;;;9.50;99.90;;;;;;5055873;28;20044;-74
2021/05/26 01:40:10;;;;;;;14.13;7.78;;;9.50;99.90;;;;;;5055910;28;20044;-74
2021/05/26 01:42:36;;;;;;;13.57;7.57;;;9.50;99.90;;;;;;5057453;28;20044;-74
2021/05/26 01:45:07;;;;;;;8.73;6.85;;;9.50;99.90;;;;;;5058409;28;20403;-73
2021/05/26 01:47:33;;;;;;;11.10;8.07;;;9.50;99.90;;;;;;5053710;28;20037;-73
2021/05/26 01:49:59;;;;;;;8.63;7.50;;;9.50;99.90;;;;;;5054089;28;20040;-73
2021/05/26 01:52:25;;;;;;;12.52;8.82;;;9.50;99.90;;;;;;5055790;28;20033;-74
2021/05/26 01:54:50;;;;;;;10.90;8.10;;;9.60;99.90;;;;;;5057192;28;20036;-74
2021/05/26 01:57:17;;;;;;;12.05;8.88;;;9.50;99.90;;;;;;5057457;28;20186;-73
2021/05/26 01:59:42;;;;;;;11.75;9.15;;;9.50;99.90;;;;;;5056272;28;20119;-74
2021/05/26 02:02:08;;;;;;;12.30;8.93;;;9.50;99.90;;;;;;5057738;28;20036;-73
2021/05/26 02:04:35;;;;;;;10.07;8.73;;;9.50;99.90;;;;;;5057889;28;20032;-74
2021/05/26 02:07:11;;;;;;;12.48;9.45;;;9.50;99.90;;;;;;5058207;28;20509;-74
2021/05/26 02:09:38;;;;;;;16.95;9.65;;;9.50;99.90;;;;;;5053397;28;20809;-74
2021/05/26 02:12:24;;;;;;;12.77;10.52;;;9.50;99.90;;;;;;5059517;28;20047;-74
2021/05/26 02:14:52;;;;;;;13.93;10.32;;;9.50;99.90;;;;;;5056873;28;20048;-74
2021/05/26 02:17:19;;;;;;;16.60;11.40;;;9.50;99.90;;;;;;5056737;28;20036;-74
2021/05/26 02:19:44;;;;;;;15.10;10.35;;;9.60;99.90;;;;;;5054696;28;20043;-74
2021/05/26 02:22:10;;;;;;;11.75;9.77;;;9.60;99.90;;;;;;5055137;28;20044;-74
2021/05/26 02:24:36;;;;;;;12.18;10.10;;;9.60;99.90;;;;;;5058460;28;20043;-74
2021/05/26 02:27:02;;;;;;;12.13;9.77;;;9.60;99.90;;;;;;5058013;28;20643;-74
2021/05/26 02:29:27;;;;;;;15.50;10.02;;;9.60;99.90;;;;;;5065400;28;20066;-74
2021/05/26 02:31:53;;;;;;;14.32;9.23;;;9.60;99.90;;;;;;5062490;28;20500;-74
2021/05/26 02:34:19;;;;;;;14.23;9.52;;;9.60;99.90;;;;;;5062701;28;20048;-74
2021/05/26 02:36:45;;;;;;;14.35;9.55;;;9.60;99.90;;;;;;5061880;28;20438;-74
2021/05/26 02:39:11;;;;;;;13.77;9.95;;;9.60;99.90;;;;;;5063794;28;20083;-74
2021/05/26 02:41:37;;;;;;;14.13;10.98;;;9.60;99.90;;;;;;5058802;28;20047;-74
2021/05/26 02:44:03;;;;;;;18.85;11.90;;;9.60;99.90;;;;;;5062052;28;20052;-74
2021/05/26 02:46:29;;;;;;;18.20;12.52;;;9.60;99.90;;;;;;5064489;28;20048;-74
2021/05/26 02:48:55;;;;;;;20.00;14.32;;;9.60;99.90;;;;;;5061698;28;20049;-74
2021/05/26 02:51:21;;;;;;;21.52;13.68;;;9.50;99.90;;;;;;5060645;28;20498;-74
2021/05/26 02:53:47;;;;;;;28.73;16.60;;;9.60;99.90;;;;;;5065968;28;20533;-74
2021/05/26 02:56:13;;;;;;;24.50;18.35;;;9.70;99.90;;;;;;5061721;28;20128;-74
2021/05/26 02:58:40;;;;;;;27.85;20.52;;;9.70;99.90;;;;;;5063690;28;20071;-74
2021/05/26 03:01:05;;;;;;;27.52;20.05;;;9.60;99.90;;;;;;5060599;28;20032;-74
2021/05/26 03:03:31;;;;;;;24.10;21.00;;;9.70;99.90;;;;;;5060744;28;20441;-74
2021/05/26 03:05:57;;;;;;;28.17;22.63;;;9.70;99.90;;;;;;5060116;28;20131;-74
2021/05/26 03:08:23;;;;;;;31.60;24.20;;;9.70;99.90;;;;;;5055455;28;20123;-74
2021/05/26 03:10:49;;;;;;;28.95;23.52;;;9.70;99.90;;;;;;5055283;28;20467;-74
2021/05/26 03:13:15;;;;;;;30.88;24.15;;;9.70;99.90;;;;;;5056956;28;20044;-74
2021/05/26 03:15:40;;;;;;;33.08;25.23;;;9.80;99.90;;;;;;5053793;28;20060;-74
2021/05/26 03:18:06;;;;;;;28.65;24.35;;;9.80;99.90;;;;;;5053867;28;20059;-74
2021/05/26 03:20:32;;;;;;;35.25;25.13;;;9.70;99.90;;;;;;5053791;28;20086;-74
2021/05/26 03:22:58;;;;;;;40.13;26.80;;;9.70;99.90;;;;;;5052193;28;20044;-74
2021/05/26 03:25:25;;;;;;;35.15;25.10;;;9.70;99.90;;;;;;5055973;28;20052;-73
2021/05/26 03:27:51;;;;;;;35.60;26.55;;;9.70;99.90;;;;;;5053603;28;20039;-74
2021/05/26 03:30:19;;;;;;;30.33;24.40;;;9.80;99.90;;;;;;5053380;28;20422;-74
2021/05/26 03:32:45;;;;;;;41.95;26.15;;;9.70;99.90;;;;;;5051981;28;20041;-74
2021/05/26 03:35:13;;;;;;;31.90;24.00;;;9.70;99.90;;;;;;5058574;28;20036;-74
2021/05/26 03:37:39;;;;;;;35.17;23.13;;;9.70;99.90;;;;;;5057117;28;20098;-74
2021/05/26 03:40:07;;;;;;;35.78;23.80;;;9.70;99.90;;;;;;5057968;28;20041;-74
2021/05/26 03:42:33;;;;;;;38.10;22.42;;;9.70;99.90;;;;;;5057232;28;20118;-74
2021/05/26 03:44:59;;;;;;;31.70;22.35;;;9.80;99.90;;;;;;5055842;28;20068;-74
2021/05/26 03:47:25;;;;;;;33.22;23.67;;;9.80;99.90;;;;;;5054113;28;20043;-74
2021/05/26 03:49:50;;;;;;;33.33;23.08;;;9.80;99.90;;;;;;5055152;28;20324;-74
2021/05/26 03:52:16;;;;;;;39.47;24.70;;;9.70;99.90;;;;;;5051971;28;20105;-74
2021/05/26 03:54:42;;;;;;;29.95;22.35;;;9.70;99.90;;;;;;5056295;28;20037;-74
2021/05/26 03:57:08;;;;;;;36.10;22.92;;;9.70;99.90;;;;;;5083884;28;20098;-74
2021/05/26 03:59:34;;;;;;;36.38;22.42;;;9.60;99.90;;;;;;5053921;28;20029;-74
2021/05/26 04:02:00;;;;;;;30.08;23.75;;;9.60;99.90;;;;;;5055205;28;20364;-74
2021/05/26 04:04:27;;;;;;;35.40;22.52;;;9.60;99.90;;;;;;5056615;28;20047;-74
2021/05/26 04:06:52;;;;;;;33.45;22.90;;;9.60;99.90;;;;;;5053569;28;20036;-74
2021/05/26 04:09:20;;;;;;;36.53;21.73;;;9.60;99.90;;;;;;5056272;28;20044;-74
2021/05/26 04:11:45;;;;;;;30.20;19.58;;;9.60;99.90;;;;;;5059160;28;20043;-74
2021/05/26 04:14:11;;;;;;;32.45;18.98;;;9.60;99.90;;;;;;5059134;28;20036;-74
2021/05/26 04:16:37;;;;;;;35.45;20.90;;;9.60;99.90;;;;;;5056056;28;20044;-74
2021/05/26 04:19:03;;;;;;;34.22;20.15;;;9.50;99.90;;;;;;5056187;28;20538;-74
2021/05/26 04:21:30;;;;;;;26.00;16.90;;;9.50;99.90;;;;;;5063894;28;20045;-74
2021/05/26 04:23:56;;;;;;;29.83;18.08;;;9.50;99.90;;;;;;5068135;28;20044;-74
2021/05/26 04:26:22;;;;;;;24.42;15.90;;;9.50;99.90;;;;;;5062169;28;20036;-74
2021/05/26 04:28:48;;;;;;;22.13;15.52;;;9.60;99.90;;;;;;5062314;28;20383;-75
2021/05/26 04:31:14;;;;;;;20.80;15.27;;;9.50;99.90;;;;;;5065056;28;20040;-74
2021/05/26 04:33:40;;;;;;;20.15;13.18;;;9.50;99.90;;;;;;5057606;28;20471;-74
2021/05/26 04:36:07;;;;;;;20.40;13.88;;;9.50;99.90;;;;;;5058841;28;20044;-74
2021/05/26 04:38:34;;;;;;;18.98;11.57;;;9.50;99.90;;;;;;5060662;28;20518;-74
2021/05/26 04:41:01;;;;;;;15.88;11.68;;;9.50;99.90;;;;;;5059698;28;20463;-74
2021/05/26 04:43:27;;;;;;;22.02;11.05;;;9.50;99.90;;;;;;5058529;28;20632;-74
2021/05/26 04:45:53;;;;;;;14.38;9.57;;;9.50;99.90;;;;;;5058377;28;20582;-74
2021/05/26 04:48:19;;;;;;;14.52;8.15;;;9.90;99.90;;;;;;5055702;28;20048;-74
2021/05/26 04:50:45;;;;;;;15.30;7.28;;;10.30;99.90;;;;;;5063830;28;20450;-74
2021/05/26 04:53:11;;;;;;;10.55;6.82;;;10.80;99.90;;;;;;5063019;28;20044;-74
2021/05/26 04:55:36;;;;;;;9.35;6.13;;;11.40;99.90;;;;;;5066395;28;20046;-75
2021/05/26 04:58:04;;;;;;;14.43;5.50;;;11.80;99.90;;;;;;5062044;28;20037;-74
2021/05/26 05:00:30;;;;;;;9.65;5.05;;;12.30;99.90;;;;;;5063345;28;20032;-75
2021/05/26 05:02:59;;;;;;;9.52;5.18;;;12.20;99.90;;;;;;5060931;28;20043;-75
2021/05/26 05:05:31;;;;;;;8.85;5.28;;;12.00;99.90;;;;;;5061594;28;20047;-74
2021/05/26 05:07:58;;;;;;;8.95;5.10;;;11.80;99.90;;;;;;5061029;28;20036;-74
2021/05/26 05:10:24;;;;;;;9.07;4.65;;;11.90;99.90;;;;;;5064997;28;20501;-74
2021/05/26 05:12:50;;;;;;;8.38;4.10;;;12.60;99.90;;;;;;5063508;28;20455;-75
2021/05/26 05:15:16;;;;;;;6.45;2.72;;;13.30;99.90;;;;;;5060719;28;20128;-75
2021/05/26 05:17:45;;;;;;;5.22;3.20;;;14.20;99.10;;;;;;5065414;28;20064;-75
2021/05/26 05:20:12;;;;;;;4.38;3.08;;;14.70;97.50;;;;;;5063929;28;20352;-75
2021/05/26 05:22:38;;;;;;;5.65;2.67;;;15.00;97.40;;;;;;5063928;28;20076;-75
2021/05/26 05:25:04;;;;;;;6.53;2.97;;;15.30;95.60;;;;;;5064110;28;20125;-75
2021/05/26 05:27:29;;;;;;;5.50;2.85;;;15.40;95.70;;;;;;5067021;28;20498;-75
2021/05/26 05:29:56;;;;;;;7.25;3.10;;;15.10;95.40;;;;;;5066803;28;20062;-75
2021/05/26 05:32:22;;;;;;;7.18;2.88;;;14.70;95.60;;;;;;5063205;28;20040;-75
2021/05/26 05:34:47;;;;;;;7.15;4.05;;;14.30;96.20;;;;;;5065435;28;20459;-75
2021/05/26 05:37:13;;;;;;;7.45;2.70;;;13.80;97.20;;;;;;5064817;28;20077;-75
2021/05/26 05:39:39;;;;;;;6.07;2.78;;;13.40;97.30;;;;;;5064016;28;20125;-75
2021/05/26 05:42:05;;;;;;;5.28;2.40;;;12.90;98.30;;;;;;5064517;28;20045;-75
2021/05/26 05:44:31;;;;;;;6.45;2.67;;;12.60;98.80;;;;;;5065269;28;20118;-75
2021/05/26 05:46:56;;;;;;;3.30;2.22;;;12.30;99.40;;;;;;5060634;28;20037;-74
2021/05/26 05:49:22;;;;;;;5.63;2.35;;;12.20;99.90;;;;;;5062880;28;20368;-75
2021/05/26 05:51:49;;;;;;;4.10;2.05;;;12.30;99.90;;;;;;5063700;28;20044;-74
2021/05/26 05:54:14;;;;;;;4.95;1.83;;;12.50;99.90;;;;;;5066288;28;20044;-75
2021/05/26 05:56:40;;;;;;;5.00;2.35;;;12.40;99.90;;;;;;5060835;28;20036;-77
2021/05/26 05:59:06;;;;;;;6.28;1.73;;;12.40;99.90;;;;;;5067114;28;20154;-77
2021/05/26 06:01:32;;;;;;;6.25;2.33;;;12.40;99.90;;;;;;5063932;28;20490;-76
2021/05/26 06:03:58;;;;;;;4.35;1.25;;;12.40;99.90;;;;;;5064937;28;20135;-76
2021/05/26 06:06:23;;;;;;;3.22;1.50;;;12.40;99.90;;;;;;5063880;28;20036;-76
2021/05/26 06:08:49;;;;;;;4.93;1.75;;;12.30;99.90;;;;;;5063190;28;20055;-77
2021/05/26 06:11:14;;;;;;;5.90;2.30;;;12.30;99.90;;;;;;5063356;28;20140;-76
2021/05/26 06:13:44;;;;;;;6.80;2.30;;;12.20;99.90;;;;;;5065916;28;20095;-76
2021/05/26 06:16:10;;;;;;;7.65;2.67;;;12.30;99.90;;;;;;5058179;28;20036;-78
2021/05/26 06:18:36;;;;;;;4.57;2.53;;;12.30;99.90;;;;;;5063882;28;20047;-78
2021/05/26 06:21:02;;;;;;;15.05;3.20;;;12.30;99.90;;;;;;5055888;28;20041;-78
2021/05/26 06:23:28;;;;;;;6.38;3.40;;;12.30;99.90;;;;;;5052535;28;20465;-78
2021/05/26 06:25:53;;;;;;;7.95;3.88;;;12.30;99.90;;;;;;5051233;28;20044;-78
2021/05/26 06:28:19;;;;;;;9.23;4.75;;;12.30;99.90;;;;;;5053132;28;20113;-79
2021/05/26 06:30:46;;;;;;;9.10;4.60;;;12.10;99.90;;;;;;5054402;28;20487;-78
2021/05/26 06:33:12;;;;;;;9.13;4.95;;;12.10;99.90;;;;;;5049756;28;20195;-77
2021/05/26 06:35:38;;;;;;;9.95;5.40;;;11.90;99.90;;;;;;5058155;28;20115;-77
2021/05/26 06:38:04;;;;;;;14.73;6.07;;;11.80;99.90;;;;;;5056303;28;20166;-76
2021/05/26 06:40:30;;;;;;;9.18;5.75;;;11.70;99.90;;;;;;5049038;28;20055;-77
2021/05/26 06:42:56;;;;;;;12.35;5.32;;;11.60;99.90;;;;;;5049219;28;21599;-77
2021/05/26 06:45:22;;;;;;;13.38;6.50;;;11.50;99.90;;;;;;5047753;28;20043;-77
2021/05/26 06:47:48;;;;;;;11.93;6.70;;;11.50;99.90;;;;;;5049520;28;20082;-77
2021/05/26 06:50:14;;;;;;;13.05;6.75;;;11.50;99.90;;;;;;5048409;28;20062;-77
2021/05/26 06:52:40;;;;;;;10.75;6.80;;;11.50;99.90;;;;;;5048428;28;20037;-77
2021/05/26 06:55:07;;;;;;;14.07;6.80;;;11.50;99.90;;;;;;5048872;28;20063;-77
2021/05/26 06:57:33;;;;;;;13.93;7.53;;;11.50;99.90;;;;;;5046036;28;20147;-77
2021/05/26 06:59:58;;;;;;;11.85;6.97;;;11.50;99.90;;;;;;5045858;28;20045;-77
2021/05/26 07:02:24;;;;;;;19.98;7.38;;;11.40;99.90;;;;;;5049216;28;20114;-77
2021/05/26 07:04:50;;;;;;;15.38;7.55;;;11.40;99.90;;;;;;5046585;28;20111;-77
2021/05/26 07:07:15;;;;;;;13.00;6.82;;;11.40;99.90;;;;;;5047432;28;20040;-78
2021/05/26 07:09:41;;;;;;;15.43;7.15;;;11.40;99.90;;;;;;5047427;28;20043;-78
2021/05/26 07:12:07;;;;;;;13.05;8.02;;;11.40;99.90;;;;;;5046293;28;22010;-77
2021/05/26 07:14:33;;;;;;;13.70;7.20;;;11.40;99.90;;;;;;5048088;28;20032;-77
2021/05/26 07:16:59;;;;;;;14.00;7.30;;;11.40;99.90;;;;;;5043173;28;20081;-77
2021/05/26 07:19:24;;;;;;;17.20;6.95;;;11.40;99.90;;;;;;5047622;28;20086;-77
2021/05/26 07:21:51;;;;;;;11.15;6.30;;;11.40;99.90;;;;;;5048504;28;20068;-77
2021/05/26 07:24:16;;;;;;;14.65;7.50;;;11.40;99.90;;;;;;5046533;28;20048;-77
2021/05/26 07:26:42;;;;;;;11.68;6.38;;;11.50;99.90;;;;;;5046343;28;20032;-76
2021/05/26 07:29:08;;;;;;;19.23;8.68;;;11.40;99.90;;;;;;5046492;28;20124;-77
2021/05/26 07:31:34;;;;;;;15.65;8.57;;;11.40;99.90;;;;;;5047421;28;20099;-76
2021/05/26 07:33:59;;;;;;;13.90;6.50;;;11.50;99.90;;;;;;5046892;28;20539;-76
2021/05/26 07:36:25;;;;;;;16.65;7.10;;;11.50;99.90;;;;;;5073957;28;20064;-77
2021/05/26 07:38:52;;;;;;;18.00;7.50;;;11.50;99.90;;;;;;5046051;28;20044;-77
2021/05/26 07:41:19;;;;;;;12.57;6.07;;;11.50;99.90;;;;;;5047196;28;20052;-77
2021/05/26 07:43:44;;;;;;;9.18;3.80;;;11.50;99.90;;;;;;5046702;28;21554;-76
2021/05/26 07:46:11;;;;;;;6.43;2.97;;;11.60;99.90;;;;;;5046690;28;20123;-76
2021/05/26 07:48:37;;;;;;;8.05;4.70;;;11.40;99.90;;;;;;5049861;28;20055;-76
2021/05/26 07:51:04;;;;;;;5.40;1.60;;;11.40;99.90;;;;;;5046806;28;20056;-76
2021/05/26 07:53:30;;;;;;;2.78;1.17;;;11.40;99.90;;;;;;5048036;28;20041;-77
2021/05/26 07:55:56;;;;;;;3.58;1.40;;;11.30;99.90;;;;;;5048616;28;20159;-77
2021/05/26 07:58:22;;;;;;;4.20;1.77;;;11.30;99.90;;;;;;5044490;28;20042;-77
2021/05/26 08:00:48;;;;;;;3.97;1.27;;;11.30;99.90;;;;;;5047700;28;20044;-77
2021/05/26 08:03:14;;;;;;;4.45;2.15;;;11.30;99.90;;;;;;5048191;28;20055;-77
2021/05/26 08:05:40;;;;;;;10.15;2.22;;;11.40;99.90;;;;;;5044075;28;20049;-79
2021/05/26 08:08:05;;;;;;;7.20;1.40;;;11.60;99.90;;;;;;5045236;28;20047;-77
2021/05/26 08:10:31;;;;;;;6.25;2.00;;;12.00;99.90;;;;;;5046362;28;20139;-78
2021/05/26 08:12:57;;;;;;;7.82;2.25;;;12.30;99.90;;;;;;5048753;28;20043;-78
2021/05/26 08:15:23;;;;;;;7.57;2.58;;;12.60;99.90;;;;;;5047940;28;20037;-78
2021/05/26 08:17:49;;;;;;;4.13;2.33;;;12.70;99.90;;;;;;5047500;28;20912;-78
2021/05/26 08:20:15;;;;;;;6.13;2.67;;;12.70;99.90;;;;;;5046383;28;20546;-78
2021/05/26 08:22:41;;;;;;;5.50;3.00;;;12.80;99.90;;;;;;5047306;28;20063;-78
2021/05/26 08:25:07;;;;;;;5.28;2.92;;;13.00;99.90;;;;;;5044862;28;20629;-78
2021/05/26 08:27:33;;;;;;;9.52;3.33;;;13.10;99.90;;;;;;5046846;28;20041;-78
2021/05/26 08:30:01;;;;;;;8.02;3.13;;;13.30;99.90;;;;;;5044482;28;20044;-78
2021/05/26 08:32:27;;;;;;;7.05;3.72;;;13.40;99.90;;;;;;5045008;28;20119;-79
2021/05/26 08:34:55;;;;;;;13.20;4.25;;;13.50;99.90;;;;;;5046763;28;20044;-79
2021/05/26 08:37:21;;;;;;;7.30;4.65;;;13.50;99.90;;;;;;5046264;28;20036;-78
2021/05/26 08:39:47;;;;;;;9.35;3.67;;;13.50;99.90;;;;;;5044736;28;20140;-79
2021/05/26 08:42:17;;;;;;;6.28;3.55;;;13.50;99.90;;;;;;5049154;28;20045;-79
2021/05/26 08:44:44;;;;;;;7.70;3.67;;;13.70;99.90;;;;;;5046444;28;20085;-82
2021/05/26 08:47:18;;;;;;;6.38;3.10;;;13.80;99.90;;;;;;5047960;28;20036;-79
2021/05/26 08:49:48;;;;;;;6.10;3.00;;;13.90;99.90;;;;;;5045471;28;20043;-79
2021/05/26 08:52:17;;;;;;;5.30;1.70;;;13.90;99.90;;;;;;5047278;28;20059;-79
2021/05/26 08:54:46;;;;;;;6.97;2.05;;;13.90;99.90;;;;;;5050248;28;20041;-79
2021/05/26 08:57:13;;;;;;;3.92;1.05;;;14.10;99.90;;;;;;5047675;28;20032;-79
2021/05/26 08:59:39;;;;;;;8.07;1.42;;;14.30;99.90;;;;;;5050603;28;20063;-79
2021/05/26 09:02:12;;;;;;;2.83;0.80;;;14.40;99.60;;;;;;5049724;28;20131;-79
2021/05/26 09:04:38;;;;;;;3.28;0.90;;;14.50;99.50;;;;;;5048121;28;20094;-79
2021/05/26 09:07:10;;;;;;;4.38;0.95;;;14.50;99.60;;;;;;5050572;28;20076;-79
2021/05/26 09:09:59;;;;;;;2.65;0.80;;;14.80;98.90;;;;;;5049385;28;20041;-79
2021/05/26 09:12:37;;;;;;;3.28;0.90;;;15.10;98.40;;;;;;5048478;28;20143;-79
2021/05/26 09:15:07;;;;;;;6.43;1.20;;;15.20;97.90;;;;;;5048910;28;20111;-78
2021/05/26 09:17:34;;;;;;;3.10;0.77;;;15.30;98.30;;;;;;5049325;28;20058;-79
2021/05/26 09:20:24;;;;;;;5.82;1.35;;;15.30;99.30;;;;;;5049516;28;20040;-79
2021/05/26 09:23:10;;;;;;;2.17;0.80;;;15.00;98.80;;;;;;5050924;28;20041;-78
2021/05/26 09:25:38;;;;;;;;;;;14.70;98.80;;;;;;5047560;28;20110;-78
2021/05/26 09:28:23;;;;;;;3.70;0.93;;;14.40;99.20;;;;;;5052826;28;19932;-78
2021/05/26 09:30:55;;;;;;;4.88;1.05;;;14.30;99.70;;;;;;5049625;28;20106;-78
2021/05/26 09:33:34;;;;;;;3.33;0.47;;;14.30;99.90;;;;;;5046998;28;20072;-78
2021/05/26 09:36:15;;;;;;;2.05;0.75;;;14.50;99.90;;;;;;5047839;28;20036;-79
2021/05/26 09:38:44;;;;;;;1.13;0.57;;;14.80;99.90;;;;;;5048388;28;20486;-80
2021/05/26 09:41:29;;;;;;;1.30;0.40;;;15.20;99.90;;;;;;5050928;28;20036;-79
2021/05/26 09:44:02;;;;;;;3.95;0.65;;;15.60;99.50;;;;;;5049208;28;20040;-80
2021/05/26 09:46:32;;;;;;;2.67;0.22;;;15.60;97.80;;;;;;5049474;28;20032;-79
2021/05/26 09:49:28;;;;;;;1.83;0.30;;;15.50;98.20;;;;;;5050243;28;20037;-79
2021/05/26 09:51:59;;;;;;;0.80;0.30;;;15.30;96.40;;;;;;5048983;28;20127;-80
2021/05/26 09:54:32;;;;;;;1.23;0.30;;;15.00;96.60;;;;;;5049461;28;20139;-79
2021/05/26 09:57:07;;;;;;;3.20;0.30;;;14.60;96.60;;;;;;5048311;28;21044;-79
2021/05/26 09:59:34;;;;;;;4.03;0.40;;;14.40;96.20;;;;;;5050818;28;20059;-79
2021/05/26 10:02:05;;;;;;;3.83;0.40;;;14.40;98.20;;;;;;5049979;28;20156;-79
2021/05/26 10:04:32;;;;;;;0.73;0.20;;;14.70;98.10;;;;;;5047495;28;20131;-79
2021/05/26 10:07:04;;;;;;;1.67;0.22;;;15.10;99.10;;;;;;5050417;28;20072;-79
2021/05/26 10:09:33;;;;;;;1.05;0.20;;;15.40;97.30;;;;;;5049017;28;20039;-79
2021/05/26 10:12:00;;;;;;;1.50;0.30;;;15.80;97.80;;;;;;5050004;28;20044;-79
2021/05/26 10:14:27;;;;;;;3.17;0.50;;;16.00;97.10;;;;;;5050183;28;20064;-79
2021/05/26 10:16:55;;;;;;;1.30;0.30;;;15.90;95.10;;;;;;5048034;28;20028;-80
2021/05/26 10:19:23;;;;;;;0.38;0.30;;;15.80;95.20;;;;;;5049920;28;20035;-79
2021/05/26 10:21:49;;;;;;;1.42;0.20;;;15.60;95.20;;;;;;5047008;28;20090;-80
2021/05/26 10:24:19;;;;;;;5.00;0.32;;;15.50;95.20;;;;;;5046732;28;20078;-80
2021/05/26 10:26:54;;;;;;;3.95;0.40;;;15.50;95.90;;;;;;5055381;28;20048;-80
2021/05/26 10:29:29;;;;;;;0.45;0.20;;;15.40;95.10;;;;;;5052208;28;20122;-80
2021/05/26 10:31:57;;;;;;;0.93;0.30;;;15.20;95.00;;;;;;5077115;28;20068;-80
2021/05/26 10:34:41;;;;;;;1.70;0.30;;;15.00;94.00;;;;;;5051415;28;20040;-80
2021/05/26 10:37:11;;;;;;;1.83;0.28;;;14.80;95.70;;;;;;5051041;28;20043;-80
2021/05/26 10:39:37;;;;;;;0.93;0.38;;;14.80;95.10;;;;;;5051134;28;20134;-80
2021/05/26 10:42:04;;;;;;;1.75;0.20;;;14.90;95.70;;;;;;5051473;28;21978;-80
2021/05/26 10:45:07;;;;;;;1.48;0.20;;;15.20;94.50;;;;;;5052966;28;20460;-80
2021/05/26 10:47:35;;;;;;;2.30;0.30;;;15.60;95.10;;;;;;5052795;28;20060;-80
2021/05/26 10:50:02;;;;;;;4.93;0.32;;;15.80;94.30;;;;;;5051697;28;20072;-80
2021/05/26 10:52:28;;;;;;;4.93;1.05;;;15.80;93.80;;;;;;5049874;28;20051;-80
2021/05/26 10:54:54;;;;;;;2.53;0.50;;;15.90;93.50;;;;;;5051176;28;20036;-81
2021/05/26 10:57:20;;;;;;;0.75;0.10;;;16.10;92.70;;;;;;5050378;28;20083;-81
2021/05/26 11:00:25;;;;;;;1.23;0.20;;;16.10;92.60;;;;;;5048946;28;20159;-81
2021/05/26 11:03:28;;;;;;;2.17;0.20;;;16.10;92.00;;;;;;5021815;28;20057;-80
2021/05/26 11:05:58;;;;;;;1.85;0.22;;;16.30;92.70;;;;;;5050538;28;20041;-81
2021/05/26 11:08:31;;;;;;;1.50;0.35;;;16.50;91.20;;;;;;5050021;28;20047;-81
2021/05/26 11:10:58;;;;;;;2.45;0.30;;;16.80;92.00;;;;;;5051890;28;20040;-81
2021/05/26 11:13:25;;;;;;;1.77;0.30;;;16.90;90.40;;;;;;5049715;28;20060;-81
2021/05/26 11:15:57;;;;;;;3.20;0.30;;;16.90;87.20;;;;;;5051133;28;20055;-81
2021/05/26 11:20:53;;;;;;;2.60;0.30;;;16.90;88.20;;;;;;5050132;28;20055;-81
2021/05/26 11:23:20;;;;;;;1.98;0.28;;;16.90;87.90;;;;;;5051487;28;20047;-82
2021/05/26 11:25:49;;;;;;;2.45;0.30;;;17.10;85.60;;;;;;5052899;28;20032;-82
2021/05/26 11:28:25;;;;;;;3.67;0.35;;;16.90;89.10;;;;;;5054712;28;21027;-82
2021/05/26 11:31:08;;;;;;;6.85;0.35;;;16.80;90.90;;;;;;5052920;28;20037;-82
2021/05/26 11:33:35;;;;;;;2.58;0.40;;;16.60;89.30;;;;;;5053833;28;20083;-86
2021/05/26 11:36:06;;;;;;;1.25;0.30;;;16.30;87.80;;;;;;5053272;28;20040;-82
2021/05/26 11:38:33;;;;;;;5.25;0.30;;;16.10;89.80;;;;;;5051035;28;20041;-81
2021/05/26 11:41:00;;;;;;;2.72;0.40;;;16.10;90.00;;;;;;5052926;28;20043;-82
2021/05/26 11:43:30;;;;;;;2.85;0.50;;;16.40;90.30;;;;;;5050913;28;20102;-82
2021/05/26 11:46:08;;;;;;;0.57;0.20;;;16.70;90.80;;;;;;5048369;28;20048;-81
2021/05/26 11:48:34;;;;;;;7.95;0.47;;;17.00;90.50;;;;;;5045892;28;20120;-82
2021/05/26 11:51:00;;;;;;;3.25;0.40;;;17.20;87.70;;;;;;5045694;28;20049;-81
2021/05/26 11:53:26;;;;;;;4.68;0.40;;;17.20;88.10;;;;;;5049150;28;20087;-81
2021/05/26 11:55:59;;;;;;;6.05;0.40;;;17.10;89.40;;;;;;5049256;28;21827;-81
2021/05/26 11:58:43;;;;;;;3.72;0.73;;;17.00;88.90;;;;;;5050119;28;20063;-81
2021/05/26 12:01:13;;;;;;;2.85;0.32;;;16.70;85.90;;;;;;5049982;28;20044;-82
2021/05/26 12:03:38;;;;;;;3.90;0.50;;;16.60;89.00;;;;;;5051033;28;20130;-81
2021/05/26 12:06:04;;;;;;;1.27;0.25;;;16.70;90.30;;;;;;5049935;28;20163;-81
2021/05/26 12:08:33;;;;;;;6.13;0.45;;;16.80;90.40;;;;;;5049936;28;20175;-81
2021/05/26 12:11:01;;;;;;;3.42;0.60;;;17.00;89.40;;;;;;5049104;28;20093;-81
2021/05/26 12:13:35;;;;;;;1.88;0.55;;;17.00;90.00;;;;;;5049787;28;20383;-82
2021/05/26 12:16:06;;;;;;;7.75;1.23;;;17.00;87.40;;;;;;5052614;28;20037;-81
2021/05/26 12:18:32;;;;;;;4.13;0.60;;;17.10;89.00;;;;;;5052010;28;20142;-81
2021/05/26 12:20:58;;;;;;;3.10;0.80;;;17.20;88.00;;;;;;5052285;28;20044;-82
2021/05/26 12:23:40;;;;;;;1.98;0.43;;;17.10;87.90;;;;;;5048114;28;20139;-82
2021/05/26 12:26:34;;;;;;;3.95;0.52;;;17.10;89.80;;;;;;5059713;28;20056;-81
2021/05/26 12:29:03;;;;;;;4.38;0.40;;;17.20;87.20;;;;;;5043770;28;20654;-81
2021/05/26 12:31:30;;;;;;;2.83;0.60;;;17.30;86.80;;;;;;5048799;28;20067;-81
2021/05/26 12:33:56;;;;;;;3.10;0.95;;;17.40;85.30;;;;;;5050187;28;20044;-81
2021/05/26 12:36:27;;;;;;;4.13;0.45;;;17.40;86.60;;;;;;5051555;28;20113;-81
2021/05/26 12:39:02;;;;;;;3.65;0.40;;;17.30;85.00;;;;;;5051854;28;20112;-81
2021/05/26 12:41:38;;;;;;;2.95;0.45;;;17.00;82.80;;;;;;5053915;28;20056;-81
2021/05/26 12:44:07;;;;;;;2.40;0.50;;;16.80;82.70;;;;;;5052577;28;20124;-81
2021/05/26 12:46:44;;;;;;;5.75;0.60;;;16.50;82.20;;;;;;5054034;28;20387;-81
2021/05/26 12:49:28;;;;;;;2.35;0.30;;;16.30;85.70;;;;;;5051742;28;20068;-81
2021/05/26 12:52:01;;;;;;;0.75;0.30;;;16.20;84.20;;;;;;5050780;28;20048;-81
2021/05/26 12:54:38;;;;;;;6.15;0.65;;;16.00;87.10;;;;;;5051915;28;20040;-81